sensor_id;sensor_type;location;lat;lon;timestamp;P1;durP1;ratioP1;P2;durP2;ratioP2
57107;SDS011;42987;52.916;6.542;2022-09-03T00:00:25;3.72;;;1.00;;
57107;SDS011;42987;52.916;6.542;2022-09-03T00:05:42;2.22;;;0.80;;
57107;SDS011;42987;52.916;6.542;2022-09-03T00:08:18;1.35;;;0.90;;
57107;SDS011;42987;52.916;6.542;2022-09-03T00:10:52;4.20;;;0.88;;
57107;SDS011;42987;52.916;6.542;2022-09-03T00:16:02;2.55;;;0.90;;
57107;SDS011;42987;52.916;6.542;2022-09-03T00:18:34;1.55;;;0.68;;
57107;SDS011;42987;52.916;6.542;2022-09-03T00:21:08;2.67;;;1.00;;
57107;SDS011;42987;52.916;6.542;2022-09-03T00:23:54;4.10;;;0.80;;
57107;SDS011;42987;52.916;6.542;2022-09-03T00:26:27;2.83;;;0.90;;
57107;SDS011;42987;52.916;6.542;2022-09-03T00:31:46;2.25;;;0.80;;
57107;SDS011;42987;52.916;6.542;2022-09-03T00:34:24;4.07;;;0.82;;
57107;SDS011;42987;52.916;6.542;2022-09-03T00:36:55;3.25;;;0.90;;
57107;SDS011;42987;52.916;6.542;2022-09-03T00:39:22;3.72;;;0.82;;
57107;SDS011;42987;52.916;6.542;2022-09-03T00:41:53;3.40;;;0.70;;
57107;SDS011;42987;52.916;6.542;2022-09-03T00:52:40;2.65;;;0.70;;
57107;SDS011;42987;52.916;6.542;2022-09-03T00:55:43;3.28;;;0.80;;
57107;SDS011;42987;52.916;6.542;2022-09-03T01:01:14;4.00;;;0.85;;
57107;SDS011;42987;52.916;6.542;2022-09-03T01:03:58;2.30;;;0.80;;
57107;SDS011;42987;52.916;6.542;2022-09-03T01:06:34;2.22;;;0.70;;
57107;SDS011;42987;52.916;6.542;2022-09-03T01:09:11;3.15;;;0.70;;
57107;SDS011;42987;52.916;6.542;2022-09-03T01:14:42;3.20;;;0.68;;
57107;SDS011;42987;52.916;6.542;2022-09-03T01:20:14;2.92;;;0.70;;
57107;SDS011;42987;52.916;6.542;2022-09-03T01:31:10;2.85;;;0.80;;
57107;SDS011;42987;52.916;6.542;2022-09-03T01:37:09;1.95;;;0.70;;
57107;SDS011;42987;52.916;6.542;2022-09-03T01:39:50;1.65;;;0.63;;
57107;SDS011;42987;52.916;6.542;2022-09-03T01:59:08;3.17;;;0.70;;
57107;SDS011;42987;52.916;6.542;2022-09-03T02:01:52;2.40;;;0.68;;
57107;SDS011;42987;52.916;6.542;2022-09-03T02:04:26;3.22;;;0.80;;
57107;SDS011;42987;52.916;6.542;2022-09-03T02:06:53;2.22;;;0.70;;
57107;SDS011;42987;52.916;6.542;2022-09-03T02:09:22;1.63;;;0.70;;
57107;SDS011;42987;52.916;6.542;2022-09-03T02:11:52;1.75;;;0.75;;
57107;SDS011;42987;52.916;6.542;2022-09-03T02:14:32;2.47;;;0.73;;
57107;SDS011;42987;52.916;6.542;2022-09-03T02:17:00;2.50;;;0.90;;
57107;SDS011;42987;52.916;6.542;2022-09-03T02:19:27;4.40;;;0.80;;
57107;SDS011;42987;52.916;6.542;2022-09-03T02:21:54;4.03;;;0.65;;
57107;SDS011;42987;52.916;6.542;2022-09-03T02:24:21;4.43;;;0.80;;
57107;SDS011;42987;52.916;6.542;2022-09-03T02:26:48;2.58;;;0.60;;
57107;SDS011;42987;52.916;6.542;2022-09-03T02:29:14;1.88;;;0.60;;
57107;SDS011;42987;52.916;6.542;2022-09-03T02:31:42;3.25;;;0.70;;
57107;SDS011;42987;52.916;6.542;2022-09-03T02:34:08;2.00;;;0.90;;
57107;SDS011;42987;52.916;6.542;2022-09-03T02:36:36;2.22;;;0.50;;
57107;SDS011;42987;52.916;6.542;2022-09-03T02:39:09;2.70;;;0.52;;
57107;SDS011;42987;52.916;6.542;2022-09-03T02:41:34;6.13;;;1.00;;
57107;SDS011;42987;52.916;6.542;2022-09-03T02:44:05;2.78;;;0.63;;
57107;SDS011;42987;52.916;6.542;2022-09-03T02:46:39;2.28;;;0.80;;
57107;SDS011;42987;52.916;6.542;2022-09-03T02:49:09;2.33;;;0.70;;
57107;SDS011;42987;52.916;6.542;2022-09-03T02:51:36;1.38;;;0.60;;
57107;SDS011;42987;52.916;6.542;2022-09-03T02:54:04;1.43;;;0.70;;
57107;SDS011;42987;52.916;6.542;2022-09-03T02:59:02;2.70;;;0.80;;
57107;SDS011;42987;52.916;6.542;2022-09-03T03:01:28;1.98;;;0.90;;
57107;SDS011;42987;52.916;6.542;2022-09-03T03:03:54;2.38;;;0.60;;
57107;SDS011;42987;52.916;6.542;2022-09-03T03:06:21;1.75;;;0.80;;
57107;SDS011;42987;52.916;6.542;2022-09-03T03:08:50;3.60;;;0.85;;
57107;SDS011;42987;52.916;6.542;2022-09-03T03:11:16;3.00;;;0.60;;
57107;SDS011;42987;52.916;6.542;2022-09-03T03:13:44;2.40;;;0.70;;
57107;SDS011;42987;52.916;6.542;2022-09-03T03:16:11;2.00;;;0.70;;
57107;SDS011;42987;52.916;6.542;2022-09-03T03:18:37;1.92;;;0.60;;
57107;SDS011;42987;52.916;6.542;2022-09-03T03:21:08;2.35;;;0.73;;
57107;SDS011;42987;52.916;6.542;2022-09-03T03:23:38;2.33;;;0.90;;
57107;SDS011;42987;52.916;6.542;2022-09-03T03:26:05;3.70;;;0.90;;
57107;SDS011;42987;52.916;6.542;2022-09-03T03:28:33;3.45;;;0.70;;
57107;SDS011;42987;52.916;6.542;2022-09-03T03:31:06;3.00;;;1.00;;
57107;SDS011;42987;52.916;6.542;2022-09-03T03:33:34;2.38;;;0.60;;
57107;SDS011;42987;52.916;6.542;2022-09-03T03:36:07;2.53;;;0.70;;
57107;SDS011;42987;52.916;6.542;2022-09-03T03:38:38;3.95;;;0.63;;
57107;SDS011;42987;52.916;6.542;2022-09-03T03:41:09;2.40;;;0.85;;
57107;SDS011;42987;52.916;6.542;2022-09-03T03:43:40;2.03;;;0.75;;
57107;SDS011;42987;52.916;6.542;2022-09-03T03:46:06;1.42;;;0.63;;
57107;SDS011;42987;52.916;6.542;2022-09-03T03:48:32;1.98;;;0.70;;
57107;SDS011;42987;52.916;6.542;2022-09-03T03:51:02;3.65;;;0.82;;
57107;SDS011;42987;52.916;6.542;2022-09-03T03:53:31;2.25;;;1.13;;
57107;SDS011;42987;52.916;6.542;2022-09-03T03:56:02;2.17;;;0.80;;
57107;SDS011;42987;52.916;6.542;2022-09-03T03:58:34;3.38;;;0.95;;
57107;SDS011;42987;52.916;6.542;2022-09-03T04:01:12;2.72;;;0.70;;
57107;SDS011;42987;52.916;6.542;2022-09-03T04:03:40;2.90;;;0.77;;
57107;SDS011;42987;52.916;6.542;2022-09-03T04:06:07;3.00;;;0.80;;
57107;SDS011;42987;52.916;6.542;2022-09-03T04:08:38;2.20;;;1.05;;
57107;SDS011;42987;52.916;6.542;2022-09-03T04:11:06;2.05;;;0.82;;
57107;SDS011;42987;52.916;6.542;2022-09-03T04:13:38;2.20;;;0.90;;
57107;SDS011;42987;52.916;6.542;2022-09-03T04:16:13;1.30;;;0.73;;
57107;SDS011;42987;52.916;6.542;2022-09-03T04:18:41;2.22;;;0.80;;
57107;SDS011;42987;52.916;6.542;2022-09-03T04:23:35;5.15;;;1.10;;
57107;SDS011;42987;52.916;6.542;2022-09-03T04:26:02;4.45;;;0.95;;
57107;SDS011;42987;52.916;6.542;2022-09-03T04:28:30;3.80;;;0.82;;
57107;SDS011;42987;52.916;6.542;2022-09-03T04:31:00;2.05;;;0.73;;
57107;SDS011;42987;52.916;6.542;2022-09-03T04:33:28;5.53;;;1.30;;
57107;SDS011;42987;52.916;6.542;2022-09-03T04:36:05;3.60;;;1.13;;
57107;SDS011;42987;52.916;6.542;2022-09-03T04:38:39;3.50;;;1.20;;
57107;SDS011;42987;52.916;6.542;2022-09-03T04:41:08;3.92;;;0.90;;
57107;SDS011;42987;52.916;6.542;2022-09-03T04:43:36;2.17;;;0.80;;
57107;SDS011;42987;52.916;6.542;2022-09-03T04:46:05;3.10;;;1.13;;
57107;SDS011;42987;52.916;6.542;2022-09-03T04:48:38;2.70;;;0.80;;
57107;SDS011;42987;52.916;6.542;2022-09-03T04:51:08;2.63;;;0.80;;
57107;SDS011;42987;52.916;6.542;2022-09-03T04:53:42;2.22;;;0.82;;
57107;SDS011;42987;52.916;6.542;2022-09-03T04:56:13;3.10;;;1.00;;
57107;SDS011;42987;52.916;6.542;2022-09-03T04:58:44;2.33;;;1.10;;
57107;SDS011;42987;52.916;6.542;2022-09-03T05:01:15;2.15;;;1.00;;
57107;SDS011;42987;52.916;6.542;2022-09-03T05:03:45;2.20;;;1.15;;
57107;SDS011;42987;52.916;6.542;2022-09-03T05:06:12;3.47;;;0.82;;
57107;SDS011;42987;52.916;6.542;2022-09-03T05:08:41;2.58;;;1.10;;
57107;SDS011;42987;52.916;6.542;2022-09-03T05:11:08;2.30;;;0.70;;
57107;SDS011;42987;52.916;6.542;2022-09-03T05:13:40;1.77;;;0.95;;
57107;SDS011;42987;52.916;6.542;2022-09-03T05:16:09;1.60;;;0.80;;
57107;SDS011;42987;52.916;6.542;2022-09-03T05:18:37;2.83;;;0.93;;
57107;SDS011;42987;52.916;6.542;2022-09-03T05:21:07;3.17;;;1.00;;
57107;SDS011;42987;52.916;6.542;2022-09-03T05:23:36;3.38;;;1.20;;
57107;SDS011;42987;52.916;6.542;2022-09-03T05:26:04;2.45;;;0.85;;
57107;SDS011;42987;52.916;6.542;2022-09-03T05:28:35;2.30;;;1.00;;
57107;SDS011;42987;52.916;6.542;2022-09-03T05:31:03;2.35;;;0.90;;
57107;SDS011;42987;52.916;6.542;2022-09-03T05:33:35;2.00;;;1.15;;
57107;SDS011;42987;52.916;6.542;2022-09-03T05:36:03;2.92;;;1.20;;
57107;SDS011;42987;52.916;6.542;2022-09-03T05:38:30;1.70;;;0.90;;
57107;SDS011;42987;52.916;6.542;2022-09-03T05:41:00;3.05;;;1.23;;
57107;SDS011;42987;52.916;6.542;2022-09-03T05:43:29;4.50;;;1.52;;
57107;SDS011;42987;52.916;6.542;2022-09-03T05:45:59;3.20;;;1.17;;
57107;SDS011;42987;52.916;6.542;2022-09-03T05:48:29;1.65;;;1.10;;
57107;SDS011;42987;52.916;6.542;2022-09-03T05:51:00;2.83;;;1.20;;
57107;SDS011;42987;52.916;6.542;2022-09-03T05:53:28;5.13;;;1.40;;
57107;SDS011;42987;52.916;6.542;2022-09-03T05:55:58;2.85;;;1.30;;
57107;SDS011;42987;52.916;6.542;2022-09-03T05:58:32;2.35;;;1.08;;
57107;SDS011;42987;52.916;6.542;2022-09-03T06:01:08;2.70;;;1.42;;
57107;SDS011;42987;52.916;6.542;2022-09-03T06:03:45;2.97;;;1.23;;
57107;SDS011;42987;52.916;6.542;2022-09-03T06:06:13;3.47;;;1.30;;
57107;SDS011;42987;52.916;6.542;2022-09-03T06:08:39;3.78;;;1.30;;
57107;SDS011;42987;52.916;6.542;2022-09-03T06:11:06;4.72;;;1.40;;
57107;SDS011;42987;52.916;6.542;2022-09-03T06:13:32;4.10;;;1.33;;
57107;SDS011;42987;52.916;6.542;2022-09-03T06:16:00;5.10;;;1.40;;
57107;SDS011;42987;52.916;6.542;2022-09-03T06:18:28;2.45;;;1.10;;
57107;SDS011;42987;52.916;6.542;2022-09-03T06:20:57;2.78;;;1.13;;
57107;SDS011;42987;52.916;6.542;2022-09-03T06:23:24;4.13;;;1.30;;
57107;SDS011;42987;52.916;6.542;2022-09-03T06:26:01;2.38;;;1.27;;
57107;SDS011;42987;52.916;6.542;2022-09-03T06:28:29;3.13;;;1.50;;
57107;SDS011;42987;52.916;6.542;2022-09-03T06:30:56;4.55;;;1.50;;
57107;SDS011;42987;52.916;6.542;2022-09-03T06:33:23;3.80;;;1.48;;
57107;SDS011;42987;52.916;6.542;2022-09-03T06:35:56;2.75;;;1.50;;
57107;SDS011;42987;52.916;6.542;2022-09-03T06:38:27;4.90;;;1.13;;
57107;SDS011;42987;52.916;6.542;2022-09-03T06:40:57;2.83;;;1.20;;
57107;SDS011;42987;52.916;6.542;2022-09-03T06:43:28;3.53;;;1.50;;
57107;SDS011;42987;52.916;6.542;2022-09-03T06:45:55;4.22;;;1.38;;
57107;SDS011;42987;52.916;6.542;2022-09-03T06:48:23;2.38;;;1.48;;
57107;SDS011;42987;52.916;6.542;2022-09-03T06:50:56;4.28;;;1.10;;
57107;SDS011;42987;52.916;6.542;2022-09-03T06:53:29;3.42;;;1.60;;
57107;SDS011;42987;52.916;6.542;2022-09-03T06:55:58;5.78;;;1.63;;
57107;SDS011;42987;52.916;6.542;2022-09-03T06:58:30;3.40;;;1.33;;
57107;SDS011;42987;52.916;6.542;2022-09-03T07:01:11;5.10;;;1.40;;
57107;SDS011;42987;52.916;6.542;2022-09-03T07:03:53;3.17;;;1.10;;
57107;SDS011;42987;52.916;6.542;2022-09-03T07:06:21;3.83;;;1.27;;
57107;SDS011;42987;52.916;6.542;2022-09-03T07:08:53;4.53;;;1.17;;
57107;SDS011;42987;52.916;6.542;2022-09-03T07:11:23;3.00;;;1.50;;
57107;SDS011;42987;52.916;6.542;2022-09-03T07:13:51;4.80;;;1.15;;
57107;SDS011;42987;52.916;6.542;2022-09-03T07:16:19;2.67;;;1.35;;
57107;SDS011;42987;52.916;6.542;2022-09-03T07:18:49;2.10;;;1.05;;
57107;SDS011;42987;52.916;6.542;2022-09-03T07:21:17;5.43;;;1.25;;
57107;SDS011;42987;52.916;6.542;2022-09-03T07:23:45;4.13;;;1.52;;
57107;SDS011;42987;52.916;6.542;2022-09-03T07:26:21;4.93;;;1.30;;
57107;SDS011;42987;52.916;6.542;2022-09-03T07:28:47;4.05;;;1.30;;
57107;SDS011;42987;52.916;6.542;2022-09-03T07:31:15;4.10;;;1.30;;
57107;SDS011;42987;52.916;6.542;2022-09-03T07:33:47;2.72;;;1.23;;
57107;SDS011;42987;52.916;6.542;2022-09-03T07:36:13;2.13;;;1.00;;
57107;SDS011;42987;52.916;6.542;2022-09-03T07:38:41;2.70;;;1.00;;
57107;SDS011;42987;52.916;6.542;2022-09-03T07:41:11;5.68;;;1.30;;
57107;SDS011;42987;52.916;6.542;2022-09-03T07:43:40;7.28;;;1.63;;
57107;SDS011;42987;52.916;6.542;2022-09-03T07:46:14;3.50;;;1.10;;
57107;SDS011;42987;52.916;6.542;2022-09-03T07:48:46;2.30;;;0.90;;
57107;SDS011;42987;52.916;6.542;2022-09-03T07:51:13;2.60;;;1.13;;
57107;SDS011;42987;52.916;6.542;2022-09-03T07:53:39;3.80;;;1.20;;
57107;SDS011;42987;52.916;6.542;2022-09-03T07:56:06;3.22;;;1.00;;
57107;SDS011;42987;52.916;6.542;2022-09-03T07:58:34;2.73;;;1.13;;
57107;SDS011;42987;52.916;6.542;2022-09-03T08:01:07;2.50;;;1.10;;
57107;SDS011;42987;52.916;6.542;2022-09-03T08:03:35;3.45;;;1.35;;
57107;SDS011;42987;52.916;6.542;2022-09-03T08:06:04;3.88;;;1.20;;
57107;SDS011;42987;52.916;6.542;2022-09-03T08:08:31;2.90;;;1.00;;
57107;SDS011;42987;52.916;6.542;2022-09-03T08:13:42;3.75;;;1.20;;
57107;SDS011;42987;52.916;6.542;2022-09-03T08:16:13;3.35;;;1.45;;
57107;SDS011;42987;52.916;6.542;2022-09-03T08:18:42;3.90;;;1.17;;
57107;SDS011;42987;52.916;6.542;2022-09-03T08:21:11;2.42;;;1.20;;
57107;SDS011;42987;52.916;6.542;2022-09-03T08:23:40;2.70;;;1.08;;
57107;SDS011;42987;52.916;6.542;2022-09-03T08:26:10;3.83;;;1.27;;
57107;SDS011;42987;52.916;6.542;2022-09-03T08:28:38;2.35;;;1.00;;
57107;SDS011;42987;52.916;6.542;2022-09-03T08:31:09;3.83;;;1.08;;
57107;SDS011;42987;52.916;6.542;2022-09-03T08:33:40;3.30;;;1.10;;
57107;SDS011;42987;52.916;6.542;2022-09-03T08:36:12;4.03;;;1.10;;
57107;SDS011;42987;52.916;6.542;2022-09-03T08:38:41;2.53;;;1.15;;
57107;SDS011;42987;52.916;6.542;2022-09-03T08:41:13;2.47;;;1.10;;
57107;SDS011;42987;52.916;6.542;2022-09-03T08:46:53;2.20;;;1.05;;
57107;SDS011;42987;52.916;6.542;2022-09-03T08:49:43;4.70;;;1.23;;
57107;SDS011;42987;52.916;6.542;2022-09-03T08:52:31;2.53;;;0.95;;
57107;SDS011;42987;52.916;6.542;2022-09-03T08:58:06;1.65;;;0.80;;
57107;SDS011;42987;52.916;6.542;2022-09-03T09:17:35;2.08;;;0.90;;
57107;SDS011;42987;52.916;6.542;2022-09-03T09:20:44;4.63;;;1.13;;
57107;SDS011;42987;52.916;6.542;2022-09-03T09:23:21;4.93;;;1.20;;
57107;SDS011;42987;52.916;6.542;2022-09-03T09:26:19;4.45;;;1.30;;
57107;SDS011;42987;52.916;6.542;2022-09-03T09:28:46;4.70;;;1.23;;
57107;SDS011;42987;52.916;6.542;2022-09-03T09:31:36;3.72;;;1.10;;
57107;SDS011;42987;52.916;6.542;2022-09-03T09:34:05;3.47;;;1.00;;
57107;SDS011;42987;52.916;6.542;2022-09-03T09:36:54;3.63;;;1.17;;
57107;SDS011;42987;52.916;6.542;2022-09-03T09:39:20;4.72;;;1.10;;
57107;SDS011;42987;52.916;6.542;2022-09-03T09:41:56;6.30;;;1.15;;
57107;SDS011;42987;52.916;6.542;2022-09-03T09:44:24;4.05;;;0.90;;
57107;SDS011;42987;52.916;6.542;2022-09-03T09:46:50;4.30;;;1.00;;
57107;SDS011;42987;52.916;6.542;2022-09-03T09:49:37;2.08;;;1.00;;
57107;SDS011;42987;52.916;6.542;2022-09-03T09:52:15;6.10;;;1.05;;
57107;SDS011;42987;52.916;6.542;2022-09-03T09:54:42;3.08;;;1.20;;
57107;SDS011;42987;52.916;6.542;2022-09-03T09:57:13;4.65;;;0.90;;
57107;SDS011;42987;52.916;6.542;2022-09-03T09:59:42;1.42;;;0.85;;
57107;SDS011;42987;52.916;6.542;2022-09-03T10:04:53;3.60;;;1.00;;
57107;SDS011;42987;52.916;6.542;2022-09-03T10:07:53;2.58;;;0.90;;
57107;SDS011;42987;52.916;6.542;2022-09-03T10:10:20;2.88;;;0.90;;
57107;SDS011;42987;52.916;6.542;2022-09-03T10:21:28;2.25;;;0.90;;
57107;SDS011;42987;52.916;6.542;2022-09-03T10:26:58;4.75;;;1.00;;
57107;SDS011;42987;52.916;6.542;2022-09-03T10:29:25;3.85;;;1.17;;
57107;SDS011;42987;52.916;6.542;2022-09-03T10:31:58;2.70;;;0.80;;
57107;SDS011;42987;52.916;6.542;2022-09-03T10:34:46;3.45;;;0.95;;
57107;SDS011;42987;52.916;6.542;2022-09-03T10:40:38;3.63;;;0.80;;
57107;SDS011;42987;52.916;6.542;2022-09-03T10:43:19;1.88;;;0.82;;
57107;SDS011;42987;52.916;6.542;2022-09-03T10:51:41;4.03;;;0.80;;
57107;SDS011;42987;52.916;6.542;2022-09-03T10:54:28;2.55;;;1.00;;
57107;SDS011;42987;52.916;6.542;2022-09-03T11:00:14;2.67;;;0.90;;
57107;SDS011;42987;52.916;6.542;2022-09-03T11:05:36;5.20;;;1.10;;
57107;SDS011;42987;52.916;6.542;2022-09-03T11:08:09;2.83;;;0.80;;
57107;SDS011;42987;52.916;6.542;2022-09-03T11:10:42;3.40;;;0.90;;
57107;SDS011;42987;52.916;6.542;2022-09-03T11:13:11;4.18;;;0.93;;
57107;SDS011;42987;52.916;6.542;2022-09-03T11:15:51;3.35;;;0.82;;
57107;SDS011;42987;52.916;6.542;2022-09-03T11:18:44;5.07;;;0.90;;
57107;SDS011;42987;52.916;6.542;2022-09-03T11:21:44;4.78;;;0.90;;
57107;SDS011;42987;52.916;6.542;2022-09-03T11:24:25;1.98;;;0.80;;
57107;SDS011;42987;52.916;6.542;2022-09-03T11:32:21;3.08;;;0.70;;
57107;SDS011;42987;52.916;6.542;2022-09-03T11:34:53;5.07;;;0.90;;
57107;SDS011;42987;52.916;6.542;2022-09-03T11:37:23;4.10;;;0.90;;
57107;SDS011;42987;52.916;6.542;2022-09-03T11:39:58;4.90;;;0.95;;
57107;SDS011;42987;52.916;6.542;2022-09-03T11:42:42;3.70;;;0.90;;
57107;SDS011;42987;52.916;6.542;2022-09-03T11:45:19;3.28;;;1.00;;
57107;SDS011;42987;52.916;6.542;2022-09-03T11:47:45;1.85;;;0.80;;
57107;SDS011;42987;52.916;6.542;2022-09-03T11:56:08;2.30;;;0.90;;
57107;SDS011;42987;52.916;6.542;2022-09-03T11:58:42;2.80;;;1.20;;
57107;SDS011;42987;52.916;6.542;2022-09-03T12:01:12;3.10;;;1.02;;
57107;SDS011;42987;52.916;6.542;2022-09-03T12:03:46;2.58;;;0.85;;
57107;SDS011;42987;52.916;6.542;2022-09-03T12:13:01;2.88;;;1.00;;
57107;SDS011;42987;52.916;6.542;2022-09-03T12:15:44;1.98;;;0.93;;
57107;SDS011;42987;52.916;6.542;2022-09-03T12:18:23;3.22;;;0.98;;
57107;SDS011;42987;52.916;6.542;2022-09-03T12:28:19;2.33;;;0.85;;
57107;SDS011;42987;52.916;6.542;2022-09-03T12:30:51;2.85;;;1.13;;
57107;SDS011;42987;52.916;6.542;2022-09-03T12:33:21;2.72;;;1.15;;
57107;SDS011;42987;52.916;6.542;2022-09-03T12:36:00;2.80;;;0.85;;
57107;SDS011;42987;52.916;6.542;2022-09-03T12:38:27;5.57;;;1.08;;
57107;SDS011;42987;52.916;6.542;2022-09-03T12:40:56;2.03;;;0.90;;
57107;SDS011;42987;52.916;6.542;2022-09-03T12:43:26;3.75;;;0.80;;
57107;SDS011;42987;52.916;6.542;2022-09-03T12:45:53;7.45;;;1.00;;
57107;SDS011;42987;52.916;6.542;2022-09-03T12:48:20;3.28;;;0.82;;
57107;SDS011;42987;52.916;6.542;2022-09-03T12:50:47;0.90;;;0.70;;
57107;SDS011;42987;52.916;6.542;2022-09-03T12:53:24;2.17;;;0.80;;
57107;SDS011;42987;52.916;6.542;2022-09-03T12:55:54;3.28;;;1.02;;
57107;SDS011;42987;52.916;6.542;2022-09-03T12:58:24;3.90;;;1.27;;
57107;SDS011;42987;52.916;6.542;2022-09-03T13:00:55;2.75;;;0.82;;
57107;SDS011;42987;52.916;6.542;2022-09-03T13:03:49;2.42;;;0.90;;
57107;SDS011;42987;52.916;6.542;2022-09-03T13:06:22;1.92;;;1.05;;
57107;SDS011;42987;52.916;6.542;2022-09-03T13:09:04;4.60;;;0.70;;
57107;SDS011;42987;52.916;6.542;2022-09-03T13:11:33;4.50;;;0.98;;
57107;SDS011;42987;52.916;6.542;2022-09-03T13:14:04;1.92;;;0.80;;
57107;SDS011;42987;52.916;6.542;2022-09-03T13:24:23;3.13;;;0.90;;
57107;SDS011;42987;52.916;6.542;2022-09-03T13:30:12;4.72;;;1.10;;
57107;SDS011;42987;52.916;6.542;2022-09-03T13:35:52;3.13;;;0.80;;
57107;SDS011;42987;52.916;6.542;2022-09-03T13:41:10;2.50;;;0.75;;
57107;SDS011;42987;52.916;6.542;2022-09-03T13:46:51;3.15;;;0.90;;
57107;SDS011;42987;52.916;6.542;2022-09-03T13:49:35;4.07;;;0.80;;
57107;SDS011;42987;52.916;6.542;2022-09-03T13:52:30;3.05;;;0.75;;
57107;SDS011;42987;52.916;6.542;2022-09-03T13:54:58;3.88;;;1.02;;
57107;SDS011;42987;52.916;6.542;2022-09-03T14:00:51;2.83;;;0.70;;
57107;SDS011;42987;52.916;6.542;2022-09-03T14:03:55;3.55;;;1.08;;
57107;SDS011;42987;52.916;6.542;2022-09-03T14:06:43;4.53;;;1.10;;
57107;SDS011;42987;52.916;6.542;2022-09-03T14:12:01;1.95;;;1.10;;
57107;SDS011;42987;52.916;6.542;2022-09-03T14:14:38;2.05;;;0.70;;
57107;SDS011;42987;52.916;6.542;2022-09-03T14:20:10;2.70;;;1.02;;
57107;SDS011;42987;52.916;6.542;2022-09-03T14:22:51;2.58;;;0.80;;
57107;SDS011;42987;52.916;6.542;2022-09-03T14:25:26;3.17;;;1.20;;
57107;SDS011;42987;52.916;6.542;2022-09-03T14:27:53;1.90;;;0.82;;
57107;SDS011;42987;52.916;6.542;2022-09-03T14:30:45;3.67;;;0.80;;
57107;SDS011;42987;52.916;6.542;2022-09-03T14:33:23;3.10;;;0.90;;
57107;SDS011;42987;52.916;6.542;2022-09-03T14:36:31;2.67;;;0.80;;
57107;SDS011;42987;52.916;6.542;2022-09-03T14:44:34;2.03;;;1.15;;
57107;SDS011;42987;52.916;6.542;2022-09-03T14:47:28;5.05;;;0.95;;
57107;SDS011;42987;52.916;6.542;2022-09-03T15:03:20;1.25;;;0.75;;
57107;SDS011;42987;52.916;6.542;2022-09-03T15:06:19;3.03;;;0.90;;
57107;SDS011;42987;52.916;6.542;2022-09-03T15:14:48;3.17;;;1.17;;
57107;SDS011;42987;52.916;6.542;2022-09-03T15:20:07;3.80;;;0.90;;
57107;SDS011;42987;52.916;6.542;2022-09-03T15:23:01;2.88;;;0.90;;
57107;SDS011;42987;52.916;6.542;2022-09-03T15:37:09;2.65;;;0.80;;
57107;SDS011;42987;52.916;6.542;2022-09-03T15:42:51;4.13;;;0.93;;
57107;SDS011;42987;52.916;6.542;2022-09-03T15:45:30;3.13;;;0.85;;
57107;SDS011;42987;52.916;6.542;2022-09-03T15:48:34;4.70;;;1.20;;
57107;SDS011;42987;52.916;6.542;2022-09-03T15:51:21;2.47;;;0.90;;
57107;SDS011;42987;52.916;6.542;2022-09-03T15:53:53;3.53;;;0.95;;
57107;SDS011;42987;52.916;6.542;2022-09-03T15:56:30;3.17;;;0.90;;
57107;SDS011;42987;52.916;6.542;2022-09-03T15:59:06;2.85;;;0.77;;
57107;SDS011;42987;52.916;6.542;2022-09-03T16:01:58;2.92;;;0.80;;
57107;SDS011;42987;52.916;6.542;2022-09-03T16:10:17;4.25;;;1.10;;
57107;SDS011;42987;52.916;6.542;2022-09-03T16:12:51;2.20;;;0.80;;
57107;SDS011;42987;52.916;6.542;2022-09-03T16:15:32;2.83;;;1.00;;
57107;SDS011;42987;52.916;6.542;2022-09-03T16:18:29;2.35;;;1.40;;
57107;SDS011;42987;52.916;6.542;2022-09-03T16:21:14;2.30;;;0.90;;
57107;SDS011;42987;52.916;6.542;2022-09-03T16:24:01;2.97;;;0.93;;
57107;SDS011;42987;52.916;6.542;2022-09-03T16:29:24;3.28;;;1.15;;
57107;SDS011;42987;52.916;6.542;2022-09-03T16:32:02;2.50;;;0.90;;
57107;SDS011;42987;52.916;6.542;2022-09-03T16:40:40;2.55;;;1.08;;
57107;SDS011;42987;52.916;6.542;2022-09-03T16:43:11;4.60;;;1.33;;
57107;SDS011;42987;52.916;6.542;2022-09-03T16:46:12;3.33;;;1.10;;
57107;SDS011;42987;52.916;6.542;2022-09-03T16:52:04;1.63;;;0.80;;
57107;SDS011;42987;52.916;6.542;2022-09-03T16:54:54;5.05;;;1.05;;
57107;SDS011;42987;52.916;6.542;2022-09-03T16:57:58;2.45;;;1.00;;
57107;SDS011;42987;52.916;6.542;2022-09-03T17:06:55;1.60;;;0.90;;
57107;SDS011;42987;52.916;6.542;2022-09-03T17:09:47;1.67;;;1.08;;
57107;SDS011;42987;52.916;6.542;2022-09-03T17:25:52;2.38;;;0.98;;
57107;SDS011;42987;52.916;6.542;2022-09-03T17:28:45;1.67;;;0.90;;
57107;SDS011;42987;52.916;6.542;2022-09-03T17:37:12;5.32;;;1.35;;
57107;SDS011;42987;52.916;6.542;2022-09-03T17:42:42;2.10;;;0.82;;
57107;SDS011;42987;52.916;6.542;2022-09-03T17:45:36;2.45;;;1.00;;
57107;SDS011;42987;52.916;6.542;2022-09-03T17:54:18;2.40;;;1.15;;
57107;SDS011;42987;52.916;6.542;2022-09-03T17:59:57;2.45;;;0.88;;
57107;SDS011;42987;52.916;6.542;2022-09-03T18:05:21;2.30;;;1.08;;
57107;SDS011;42987;52.916;6.542;2022-09-03T18:08:04;4.65;;;1.15;;
57107;SDS011;42987;52.916;6.542;2022-09-03T18:16:34;3.40;;;1.00;;
57107;SDS011;42987;52.916;6.542;2022-09-03T18:21:53;2.70;;;0.93;;
57107;SDS011;42987;52.916;6.542;2022-09-03T18:24:51;6.07;;;1.25;;
57107;SDS011;42987;52.916;6.542;2022-09-03T18:27:43;3.85;;;1.17;;
57107;SDS011;42987;52.916;6.542;2022-09-03T18:30:36;3.78;;;1.50;;
57107;SDS011;42987;52.916;6.542;2022-09-03T18:33:23;3.22;;;1.05;;
57107;SDS011;42987;52.916;6.542;2022-09-03T18:36:08;2.05;;;1.23;;
57107;SDS011;42987;52.916;6.542;2022-09-03T18:39:06;3.92;;;1.02;;
57107;SDS011;42987;52.916;6.542;2022-09-03T18:42:05;4.15;;;1.20;;
57107;SDS011;42987;52.916;6.542;2022-09-03T18:48:22;6.32;;;1.23;;
57107;SDS011;42987;52.916;6.542;2022-09-03T19:00:38;2.13;;;1.00;;
57107;SDS011;42987;52.916;6.542;2022-09-03T19:06:52;3.53;;;1.48;;
57107;SDS011;42987;52.916;6.542;2022-09-03T19:10:00;2.88;;;0.93;;
57107;SDS011;42987;52.916;6.542;2022-09-03T19:15:58;2.70;;;1.40;;
57107;SDS011;42987;52.916;6.542;2022-09-03T19:19:13;3.92;;;1.10;;
57107;SDS011;42987;52.916;6.542;2022-09-03T19:22:25;2.97;;;1.20;;
57107;SDS011;42987;52.916;6.542;2022-09-03T19:25:18;4.13;;;1.00;;
57107;SDS011;42987;52.916;6.542;2022-09-03T19:30:57;2.85;;;1.20;;
57107;SDS011;42987;52.916;6.542;2022-09-03T19:40:31;4.32;;;1.35;;
57107;SDS011;42987;52.916;6.542;2022-09-03T19:47:01;2.45;;;1.52;;
57107;SDS011;42987;52.916;6.542;2022-09-03T19:55:53;2.92;;;1.13;;
57107;SDS011;42987;52.916;6.542;2022-09-03T19:58:47;3.53;;;1.08;;
57107;SDS011;42987;52.916;6.542;2022-09-03T20:01:37;3.65;;;1.08;;
57107;SDS011;42987;52.916;6.542;2022-09-03T20:04:36;3.40;;;1.20;;
57107;SDS011;42987;52.916;6.542;2022-09-03T20:07:24;8.30;;;1.40;;
57107;SDS011;42987;52.916;6.542;2022-09-03T20:10:13;2.58;;;1.05;;
57107;SDS011;42987;52.916;6.542;2022-09-03T20:12:49;6.57;;;1.55;;
57107;SDS011;42987;52.916;6.542;2022-09-03T20:15:27;3.97;;;1.20;;
57107;SDS011;42987;52.916;6.542;2022-09-03T20:18:24;2.65;;;1.05;;
57107;SDS011;42987;52.916;6.542;2022-09-03T20:20:55;8.07;;;1.40;;
57107;SDS011;42987;52.916;6.542;2022-09-03T20:26:54;3.38;;;1.42;;
57107;SDS011;42987;52.916;6.542;2022-09-03T20:37:52;5.28;;;1.45;;
57107;SDS011;42987;52.916;6.542;2022-09-03T20:46:09;2.00;;;1.20;;
57107;SDS011;42987;52.916;6.542;2022-09-03T20:52:25;4.15;;;1.52;;
57107;SDS011;42987;52.916;6.542;2022-09-03T20:57:53;4.95;;;1.58;;
57107;SDS011;42987;52.916;6.542;2022-09-03T21:00:17;2.42;;;1.10;;
57107;SDS011;42987;52.916;6.542;2022-09-03T21:05:13;5.13;;;1.50;;
57107;SDS011;42987;52.916;6.542;2022-09-03T21:07:49;4.13;;;1.23;;
57107;SDS011;42987;52.916;6.542;2022-09-03T21:15:50;3.30;;;1.33;;
57107;SDS011;42987;52.916;6.542;2022-09-03T21:18:57;2.85;;;1.40;;
57107;SDS011;42987;52.916;6.542;2022-09-03T21:21:49;4.72;;;1.30;;
57107;SDS011;42987;52.916;6.542;2022-09-03T21:27:12;3.75;;;1.35;;